sensor_id;sensor_type;location;lat;lon;timestamp;pressure;altitude;pressure_sealevel;temperature;humidity
73860;BME280;62197;51.632;13.700;2023-06-14T00:00:10;100283.06;;;13.59;79.63
73860;BME280;62197;51.632;13.700;2023-06-14T00:02:38;100277.00;;;13.62;79.23
73860;BME280;62197;51.632;13.700;2023-06-14T00:05:04;100278.63;;;14.00;78.27
73860;BME280;62197;51.632;13.700;2023-06-14T00:07:41;100278.94;;;14.03;79.65
73860;BME280;62197;51.632;13.700;2023-06-14T00:10:12;100272.63;;;14.13;78.07
73860;BME280;62197;51.632;13.700;2023-06-14T00:12:38;100282.88;;;13.71;79.21
73860;BME280;62197;51.632;13.700;2023-06-14T00:15:05;100275.47;;;13.81;78.40
73860;BME280;62197;51.632;13.700;2023-06-14T00:17:31;100275.94;;;13.68;80.26
73860;BME280;62197;51.632;13.700;2023-06-14T00:19:59;100270.34;;;14.05;77.39
73860;BME280;62197;51.632;13.700;2023-06-14T00:22:25;100263.53;;;14.22;77.82
73860;BME280;62197;51.632;13.700;2023-06-14T00:24:51;100262.06;;;14.10;76.72
73860;BME280;62197;51.632;13.700;2023-06-14T00:27:17;100257.88;;;14.07;78.03
73860;BME280;62197;51.632;13.700;2023-06-14T00:29:42;100270.91;;;13.65;79.60
73860;BME280;62197;51.632;13.700;2023-06-14T00:32:08;100267.88;;;14.08;79.45
73860;BME280;62197;51.632;13.700;2023-06-14T00:34:34;100267.31;;;14.06;77.99
73860;BME280;62197;51.632;13.700;2023-06-14T00:36:59;100265.44;;;13.75;78.99
73860;BME280;62197;51.632;13.700;2023-06-14T00:39:25;100269.19;;;13.54;81.81
73860;BME280;62197;51.632;13.700;2023-06-14T00:41:50;100267.53;;;14.00;78.68
73860;BME280;62197;51.632;13.700;2023-06-14T00:44:16;100269.84;;;13.71;79.48
73860;BME280;62197;51.632;13.700;2023-06-14T00:46:42;100269.75;;;12.98;82.89
73860;BME280;62197;51.632;13.700;2023-06-14T00:49:08;100274.16;;;12.94;84.41
73860;BME280;62197;51.632;13.700;2023-06-14T00:51:33;100276.16;;;12.72;85.43
73860;BME280;62197;51.632;13.700;2023-06-14T00:53:59;100273.09;;;13.00;86.15
73860;BME280;62197;51.632;13.700;2023-06-14T00:56:24;100265.69;;;12.79;84.61
73860;BME280;62197;51.632;13.700;2023-06-14T00:58:50;100270.94;;;12.53;86.60
73860;BME280;62197;51.632;13.700;2023-06-14T01:01:16;100255.09;;;12.27;87.68
73860;BME280;62197;51.632;13.700;2023-06-14T01:03:41;100260.28;;;12.19;88.50
73860;BME280;62197;51.632;13.700;2023-06-14T01:09:01;100258.94;;;12.21;89.11
73860;BME280;62197;51.632;13.700;2023-06-14T01:11:32;100253.75;;;12.08;89.47
73860;BME280;62197;51.632;13.700;2023-06-14T01:14:03;100255.31;;;11.99;90.12
73860;BME280;62197;51.632;13.700;2023-06-14T01:16:29;100250.97;;;11.87;90.93
73860;BME280;62197;51.632;13.700;2023-06-14T01:18:56;100252.34;;;11.84;91.75
73860;BME280;62197;51.632;13.700;2023-06-14T01:21:24;100251.50;;;11.84;91.86
73860;BME280;62197;51.632;13.700;2023-06-14T01:23:50;100243.06;;;11.73;91.76
73860;BME280;62197;51.632;13.700;2023-06-14T01:26:19;100250.56;;;12.16;92.48
73860;BME280;62197;51.632;13.700;2023-06-14T01:28:45;100246.56;;;12.29;90.13
73860;BME280;62197;51.632;13.700;2023-06-14T01:31:16;100253.44;;;12.05;90.50
73860;BME280;62197;51.632;13.700;2023-06-14T01:33:42;100254.00;;;11.85;91.16
73860;BME280;62197;51.632;13.700;2023-06-14T01:36:09;100266.44;;;11.66;92.35
73860;BME280;62197;51.632;13.700;2023-06-14T01:38:35;100260.00;;;11.99;91.00
73860;BME280;62197;51.632;13.700;2023-06-14T01:41:01;100265.84;;;12.02;91.28
73860;BME280;62197;51.632;13.700;2023-06-14T01:43:29;100263.41;;;11.84;91.72
73860;BME280;62197;51.632;13.700;2023-06-14T01:45:56;100266.75;;;11.53;93.45
73860;BME280;62197;51.632;13.700;2023-06-14T01:48:23;100257.22;;;11.44;94.21
73860;BME280;62197;51.632;13.700;2023-06-14T01:50:49;100253.63;;;11.27;95.29
73860;BME280;62197;51.632;13.700;2023-06-14T01:53:15;100250.25;;;11.25;95.58
73860;BME280;62197;51.632;13.700;2023-06-14T01:55:41;100253.03;;;11.25;96.24
73860;BME280;62197;51.632;13.700;2023-06-14T01:58:08;100253.53;;;11.22;96.44
73860;BME280;62197;51.632;13.700;2023-06-14T02:00:34;100265.25;;;11.29;95.93
73860;BME280;62197;51.632;13.700;2023-06-14T02:03:00;100269.94;;;11.12;97.59
73860;BME280;62197;51.632;13.700;2023-06-14T02:05:25;100274.78;;;11.05;96.71
73860;BME280;62197;51.632;13.700;2023-06-14T02:07:51;100268.25;;;10.94;98.13
73860;BME280;62197;51.632;13.700;2023-06-14T02:10:16;100273.16;;;10.92;98.57
73860;BME280;62197;51.632;13.700;2023-06-14T02:12:43;100271.75;;;10.89;98.28
73860;BME280;62197;51.632;13.700;2023-06-14T02:15:08;100279.28;;;10.94;98.46
73860;BME280;62197;51.632;13.700;2023-06-14T02:17:35;100270.06;;;10.88;98.73
73860;BME280;62197;51.632;13.700;2023-06-14T02:20:00;100285.31;;;11.08;98.94
73860;BME280;62197;51.632;13.700;2023-06-14T02:22:26;100263.91;;;10.98;98.19
73860;BME280;62197;51.632;13.700;2023-06-14T02:24:51;100282.97;;;11.00;99.07
73860;BME280;62197;51.632;13.700;2023-06-14T02:27:16;100279.78;;;10.91;98.78
73860;BME280;62197;51.632;13.700;2023-06-14T02:29:42;100293.06;;;10.77;99.48
73860;BME280;62197;51.632;13.700;2023-06-14T02:32:07;100285.47;;;10.84;99.15
73860;BME280;62197;51.632;13.700;2023-06-14T02:34:33;100282.63;;;10.79;99.81
73860;BME280;62197;51.632;13.700;2023-06-14T02:36:59;100278.75;;;10.80;100.00
73860;BME280;62197;51.632;13.700;2023-06-14T02:39:24;100284.28;;;10.80;99.57
73860;BME280;62197;51.632;13.700;2023-06-14T02:41:50;100288.72;;;10.53;100.00
73860;BME280;62197;51.632;13.700;2023-06-14T02:44:16;100295.59;;;10.51;100.00
73860;BME280;62197;51.632;13.700;2023-06-14T02:46:42;100290.88;;;10.51;100.00
73860;BME280;62197;51.632;13.700;2023-06-14T02:49:09;100289.44;;;10.60;100.00
73860;BME280;62197;51.632;13.700;2023-06-14T02:51:34;100288.66;;;10.37;100.00
73860;BME280;62197;51.632;13.700;2023-06-14T02:53:59;100292.44;;;10.47;100.00
73860;BME280;62197;51.632;13.700;2023-06-14T02:56:24;100294.31;;;10.30;100.00
73860;BME280;62197;51.632;13.700;2023-06-14T02:58:51;100291.06;;;10.33;100.00
73860;BME280;62197;51.632;13.700;2023-06-14T03:01:16;100285.94;;;10.25;100.00
73860;BME280;62197;51.632;13.700;2023-06-14T03:03:42;100292.41;;;10.19;100.00
73860;BME280;62197;51.632;13.700;2023-06-14T03:06:07;100291.53;;;10.30;100.00
73860;BME280;62197;51.632;13.700;2023-06-14T03:08:33;100291.16;;;10.38;100.00
73860;BME280;62197;51.632;13.700;2023-06-14T03:11:04;100285.09;;;10.64;100.00
73860;BME280;62197;51.632;13.700;2023-06-14T03:13:30;100293.47;;;10.41;100.00
73860;BME280;62197;51.632;13.700;2023-06-14T03:15:57;100285.84;;;10.48;100.00
73860;BME280;62197;51.632;13.700;2023-06-14T03:18:22;100289.13;;;10.34;100.00
73860;BME280;62197;51.632;13.700;2023-06-14T03:20:48;100283.81;;;10.44;100.00
73860;BME280;62197;51.632;13.700;2023-06-14T03:23:13;100294.22;;;10.25;100.00
73860;BME280;62197;51.632;13.700;2023-06-14T03:25:38;100303.94;;;10.16;100.00
73860;BME280;62197;51.632;13.700;2023-06-14T03:28:07;100307.78;;;10.15;100.00
73860;BME280;62197;51.632;13.700;2023-06-14T03:30:32;100313.28;;;10.15;100.00
73860;BME280;62197;51.632;13.700;2023-06-14T03:32:58;100316.97;;;10.09;100.00
73860;BME280;62197;51.632;13.700;2023-06-14T03:35:26;100308.63;;;10.16;100.00
73860;BME280;62197;51.632;13.700;2023-06-14T03:37:51;100314.22;;;10.09;100.00
73860;BME280;62197;51.632;13.700;2023-06-14T03:40:18;100317.16;;;10.14;100.00
73860;BME280;62197;51.632;13.700;2023-06-14T03:42:44;100318.31;;;10.18;100.00
73860;BME280;62197;51.632;13.700;2023-06-14T03:45:09;100326.38;;;10.20;100.00
73860;BME280;62197;51.632;13.700;2023-06-14T03:47:35;100320.69;;;10.26;100.00
73860;BME280;62197;51.632;13.700;2023-06-14T03:50:01;100330.75;;;10.32;100.00
73860;BME280;62197;51.632;13.700;2023-06-14T03:52:27;100336.78;;;10.29;100.00
73860;BME280;62197;51.632;13.700;2023-06-14T03:54:52;100337.50;;;10.25;100.00
73860;BME280;62197;51.632;13.700;2023-06-14T03:57:18;100340.25;;;10.25;100.00
73860;BME280;62197;51.632;13.700;2023-06-14T03:59:43;100336.22;;;10.55;100.00
73860;BME280;62197;51.632;13.700;2023-06-14T04:02:09;100347.75;;;10.52;100.00
73860;BME280;62197;51.632;13.700;2023-06-14T04:04:34;100346.78;;;10.58;100.00
73860;BME280;62197;51.632;13.700;2023-06-14T04:07:00;100350.38;;;10.47;100.00
73860;BME280;62197;51.632;13.700;2023-06-14T04:09:31;100354.03;;;10.76;100.00
73860;BME280;62197;51.632;13.700;2023-06-14T04:11:57;100354.13;;;10.81;100.00
73860;BME280;62197;51.632;13.700;2023-06-14T04:14:22;100364.25;;;10.75;100.00
73860;BME280;62197;51.632;13.700;2023-06-14T04:16:47;100359.25;;;10.89;100.00
73860;BME280;62197;51.632;13.700;2023-06-14T04:19:13;100352.38;;;11.03;100.00
73860;BME280;62197;51.632;13.700;2023-06-14T04:21:38;100350.41;;;11.04;100.00
73860;BME280;62197;51.632;13.700;2023-06-14T04:24:04;100350.53;;;11.09;100.00
73860;BME280;62197;51.632;13.700;2023-06-14T04:26:29;100352.78;;;11.12;100.00
73860;BME280;62197;51.632;13.700;2023-06-14T04:28:55;100360.28;;;11.28;100.00
73860;BME280;62197;51.632;13.700;2023-06-14T04:31:22;100345.66;;;11.44;100.00
73860;BME280;62197;51.632;13.700;2023-06-14T04:33:50;100347.81;;;11.42;100.00
73860;BME280;62197;51.632;13.700;2023-06-14T04:36:15;100355.28;;;11.58;100.00
73860;BME280;62197;51.632;13.700;2023-06-14T04:38:43;100353.88;;;11.72;100.00
73860;BME280;62197;51.632;13.700;2023-06-14T04:41:10;100352.88;;;11.78;99.85
73860;BME280;62197;51.632;13.700;2023-06-14T04:43:37;100363.63;;;11.74;100.00
73860;BME280;62197;51.632;13.700;2023-06-14T04:46:04;100365.78;;;11.72;100.00
73860;BME280;62197;51.632;13.700;2023-06-14T04:48:30;100369.28;;;12.01;100.00
73860;BME280;62197;51.632;13.700;2023-06-14T04:50:56;100370.13;;;12.40;97.28
73860;BME280;62197;51.632;13.700;2023-06-14T04:53:21;100370.72;;;12.85;94.65
73860;BME280;62197;51.632;13.700;2023-06-14T04:55:48;100370.41;;;12.38;96.93
73860;BME280;62197;51.632;13.700;2023-06-14T04:58:14;100372.72;;;12.46;96.88
73860;BME280;62197;51.632;13.700;2023-06-14T05:00:39;100365.50;;;12.89;94.61
73860;BME280;62197;51.632;13.700;2023-06-14T05:03:04;100364.75;;;12.72;94.51
73860;BME280;62197;51.632;13.700;2023-06-14T05:05:31;100374.72;;;12.73;94.42
73860;BME280;62197;51.632;13.700;2023-06-14T05:07:57;100370.59;;;12.75;94.91
73860;BME280;62197;51.632;13.700;2023-06-14T05:10:22;100380.25;;;13.16;94.31
73860;BME280;62197;51.632;13.700;2023-06-14T05:12:48;100388.16;;;13.29;91.58
73860;BME280;62197;51.632;13.700;2023-06-14T05:15:14;100381.88;;;13.12;92.62
73860;BME280;62197;51.632;13.700;2023-06-14T05:17:40;100400.97;;;13.35;91.47
73860;BME280;62197;51.632;13.700;2023-06-14T05:20:06;100386.38;;;13.44;92.80
73860;BME280;62197;51.632;13.700;2023-06-14T05:22:32;100383.91;;;13.48;90.72
73860;BME280;62197;51.632;13.700;2023-06-14T05:24:57;100383.91;;;13.48;90.44
73860;BME280;62197;51.632;13.700;2023-06-14T05:27:22;100395.69;;;13.33;90.89
73860;BME280;62197;51.632;13.700;2023-06-14T05:29:49;100395.94;;;13.58;91.04
73860;BME280;62197;51.632;13.700;2023-06-14T05:32:15;100391.88;;;13.71;89.00
73860;BME280;62197;51.632;13.700;2023-06-14T05:34:40;100398.38;;;13.82;89.42
73860;BME280;62197;51.632;13.700;2023-06-14T05:37:06;100401.31;;;13.70;90.01
73860;BME280;62197;51.632;13.700;2023-06-14T05:39:31;100394.53;;;14.24;87.16
73860;BME280;62197;51.632;13.700;2023-06-14T05:41:56;100389.31;;;14.80;84.35
73860;BME280;62197;51.632;13.700;2023-06-14T05:44:21;100394.41;;;14.46;84.69
73860;BME280;62197;51.632;13.700;2023-06-14T05:46:47;100389.03;;;14.29;85.00
73860;BME280;62197;51.632;13.700;2023-06-14T05:49:12;100389.19;;;14.50;85.42
73860;BME280;62197;51.632;13.700;2023-06-14T05:51:37;100390.84;;;14.56;84.53
73860;BME280;62197;51.632;13.700;2023-06-14T05:54:02;100380.38;;;14.68;84.02
73860;BME280;62197;51.632;13.700;2023-06-14T05:56:28;100381.84;;;14.85;81.84
73860;BME280;62197;51.632;13.700;2023-06-14T05:58:53;100380.03;;;15.21;80.44
73860;BME280;62197;51.632;13.700;2023-06-14T06:01:19;100381.72;;;15.37;79.03
73860;BME280;62197;51.632;13.700;2023-06-14T06:03:47;100387.28;;;15.32;78.22
73860;BME280;62197;51.632;13.700;2023-06-14T06:06:13;100394.56;;;15.53;78.66
73860;BME280;62197;51.632;13.700;2023-06-14T06:08:38;100386.25;;;15.48;78.49
73860;BME280;62197;51.632;13.700;2023-06-14T06:11:04;100387.91;;;15.59;78.82
73860;BME280;62197;51.632;13.700;2023-06-14T06:13:29;100391.75;;;15.38;78.00
73860;BME280;62197;51.632;13.700;2023-06-14T06:15:55;100388.75;;;15.60;77.84
73860;BME280;62197;51.632;13.700;2023-06-14T06:18:21;100387.38;;;15.82;77.24
73860;BME280;62197;51.632;13.700;2023-06-14T06:20:46;100394.63;;;16.08;76.38
73860;BME280;62197;51.632;13.700;2023-06-14T06:23:12;100396.28;;;16.19;74.95
73860;BME280;62197;51.632;13.700;2023-06-14T06:25:37;100394.84;;;16.32;73.27
73860;BME280;62197;51.632;13.700;2023-06-14T06:28:03;100397.63;;;16.22;71.83
73860;BME280;62197;51.632;13.700;2023-06-14T06:30:28;100399.59;;;16.37;72.84
73860;BME280;62197;51.632;13.700;2023-06-14T06:32:53;100397.63;;;16.62;71.48
73860;BME280;62197;51.632;13.700;2023-06-14T06:35:20;100397.88;;;16.66;71.09
73860;BME280;62197;51.632;13.700;2023-06-14T06:37:46;100397.28;;;16.79;70.50
73860;BME280;62197;51.632;13.700;2023-06-14T06:40:11;100402.56;;;16.85;70.78
73860;BME280;62197;51.632;13.700;2023-06-14T06:42:37;100403.91;;;16.93;71.33
73860;BME280;62197;51.632;13.700;2023-06-14T06:45:03;100405.63;;;16.79;70.19
73860;BME280;62197;51.632;13.700;2023-06-14T06:47:29;100413.53;;;15.96;71.86
73860;BME280;62197;51.632;13.700;2023-06-14T06:49:54;100415.75;;;16.14;74.22
73860;BME280;62197;51.632;13.700;2023-06-14T06:52:19;100420.22;;;16.00;72.54
73860;BME280;62197;51.632;13.700;2023-06-14T06:54:45;100419.09;;;16.21;72.12
73860;BME280;62197;51.632;13.700;2023-06-14T06:57:10;100416.31;;;15.91;73.30
73860;BME280;62197;51.632;13.700;2023-06-14T06:59:36;100416.28;;;15.66;74.21
73860;BME280;62197;51.632;13.700;2023-06-14T07:02:01;100417.69;;;15.74;73.31
73860;BME280;62197;51.632;13.700;2023-06-14T07:04:27;100425.75;;;15.85;72.48
73860;BME280;62197;51.632;13.700;2023-06-14T07:06:52;100431.38;;;16.00;73.18
73860;BME280;62197;51.632;13.700;2023-06-14T07:09:17;100428.56;;;16.10;73.78
73860;BME280;62197;51.632;13.700;2023-06-14T07:11:45;100437.19;;;16.29;72.66
73860;BME280;62197;51.632;13.700;2023-06-14T07:14:10;100436.06;;;16.35;72.50
73860;BME280;62197;51.632;13.700;2023-06-14T07:16:36;100430.19;;;16.67;71.89
73860;BME280;62197;51.632;13.700;2023-06-14T07:19:02;100428.75;;;16.74;71.74
73860;BME280;62197;51.632;13.700;2023-06-14T07:21:28;100434.66;;;16.58;73.00
73860;BME280;62197;51.632;13.700;2023-06-14T07:23:54;100442.41;;;16.86;72.70
73860;BME280;62197;51.632;13.700;2023-06-14T07:26:20;100438.00;;;16.65;70.71
73860;BME280;62197;51.632;13.700;2023-06-14T07:28:46;100445.78;;;16.48;71.40
73860;BME280;62197;51.632;13.700;2023-06-14T07:31:12;100437.19;;;16.49;71.01
73860;BME280;62197;51.632;13.700;2023-06-14T07:33:37;100442.19;;;16.07;71.22
73860;BME280;62197;51.632;13.700;2023-06-14T07:36:03;100444.16;;;16.11;72.08
73860;BME280;62197;51.632;13.700;2023-06-14T07:38:29;100445.81;;;16.22;71.54
73860;BME280;62197;51.632;13.700;2023-06-14T07:40:54;100445.25;;;16.66;71.06
73860;BME280;62197;51.632;13.700;2023-06-14T07:43:20;100449.59;;;17.02;69.28
73860;BME280;62197;51.632;13.700;2023-06-14T07:45:45;100451.97;;;16.55;69.43
73860;BME280;62197;51.632;13.700;2023-06-14T07:48:11;100450.25;;;16.69;69.25
73860;BME280;62197;51.632;13.700;2023-06-14T07:50:36;100454.69;;;16.75;68.99
73860;BME280;62197;51.632;13.700;2023-06-14T07:53:02;100451.97;;;16.50;71.62
73860;BME280;62197;51.632;13.700;2023-06-14T07:55:27;100463.66;;;16.11;71.33
73860;BME280;62197;51.632;13.700;2023-06-14T07:57:53;100460.59;;;15.93;73.07
73860;BME280;62197;51.632;13.700;2023-06-14T08:00:20;100464.78;;;16.15;72.40
73860;BME280;62197;51.632;13.700;2023-06-14T08:02:46;100455.59;;;16.10;71.01
73860;BME280;62197;51.632;13.700;2023-06-14T08:05:12;100458.66;;;16.23;70.94
73860;BME280;62197;51.632;13.700;2023-06-14T08:07:38;100463.03;;;16.85;71.46
73860;BME280;62197;51.632;13.700;2023-06-14T08:10:05;100456.66;;;17.43;68.54
73860;BME280;62197;51.632;13.700;2023-06-14T08:12:31;100451.69;;;17.35;66.60
73860;BME280;62197;51.632;13.700;2023-06-14T08:14:56;100459.31;;;17.73;67.51
73860;BME280;62197;51.632;13.700;2023-06-14T08:17:22;100462.47;;;18.00;66.26
73860;BME280;62197;51.632;13.700;2023-06-14T08:19:47;100455.03;;;18.25;65.19
73860;BME280;62197;51.632;13.700;2023-06-14T08:22:13;100464.06;;;18.50;65.39
73860;BME280;62197;51.632;13.700;2023-06-14T08:24:38;100464.19;;;17.96;65.20
73860;BME280;62197;51.632;13.700;2023-06-14T08:27:05;100451.84;;;18.36;66.16
73860;BME280;62197;51.632;13.700;2023-06-14T08:29:31;100457.97;;;18.43;64.61
73860;BME280;62197;51.632;13.700;2023-06-14T08:31:56;100462.88;;;18.23;64.60
73860;BME280;62197;51.632;13.700;2023-06-14T08:34:22;100461.78;;;18.19;65.44
73860;BME280;62197;51.632;13.700;2023-06-14T08:36:50;100450.13;;;18.07;68.68
73860;BME280;62197;51.632;13.700;2023-06-14T08:39:15;100457.31;;;18.80;65.87
73860;BME280;62197;51.632;13.700;2023-06-14T08:41:43;100453.00;;;18.92;63.88
73860;BME280;62197;51.632;13.700;2023-06-14T08:44:11;100457.00;;;18.81;65.15
73860;BME280;62197;51.632;13.700;2023-06-14T08:46:37;100463.16;;;18.55;64.79
73860;BME280;62197;51.632;13.700;2023-06-14T08:49:02;100455.59;;;18.22;66.05
73860;BME280;62197;51.632;13.700;2023-06-14T08:51:31;100451.19;;;18.16;67.23
73860;BME280;62197;51.632;13.700;2023-06-14T08:54:00;100451.06;;;18.31;66.20
73860;BME280;62197;51.632;13.700;2023-06-14T08:56:27;100449.66;;;17.94;67.47
73860;BME280;62197;51.632;13.700;2023-06-14T08:58:54;100438.28;;;18.25;67.19
73860;BME280;62197;51.632;13.700;2023-06-14T09:01:20;100451.81;;;18.99;66.63
73860;BME280;62197;51.632;13.700;2023-06-14T09:03:47;100442.78;;;18.78;66.33
73860;BME280;62197;51.632;13.700;2023-06-14T09:06:13;100450.34;;;18.49;67.42
73860;BME280;62197;51.632;13.700;2023-06-14T09:08:42;100448.06;;;19.08;65.83
73860;BME280;62197;51.632;13.700;2023-06-14T09:11:10;100449.13;;;19.36;64.49
73860;BME280;62197;51.632;13.700;2023-06-14T09:13:36;100447.56;;;19.48;63.32
73860;BME280;62197;51.632;13.700;2023-06-14T09:16:01;100444.81;;;18.44;66.90
73860;BME280;62197;51.632;13.700;2023-06-14T09:18:42;100447.56;;;19.01;65.65
73860;BME280;62197;51.632;13.700;2023-06-14T09:21:10;100449.78;;;19.04;66.00
73860;BME280;62197;51.632;13.700;2023-06-14T09:23:43;100451.22;;;18.11;67.86
73860;BME280;62197;51.632;13.700;2023-06-14T09:26:14;100458.00;;;18.67;65.89
73860;BME280;62197;51.632;13.700;2023-06-14T09:28:47;100460.44;;;18.45;66.89
73860;BME280;62197;51.632;13.700;2023-06-14T09:31:15;100457.22;;;18.28;68.32
73860;BME280;62197;51.632;13.700;2023-06-14T09:34:01;100464.53;;;18.24;67.80
73860;BME280;62197;51.632;13.700;2023-06-14T09:36:27;100467.19;;;18.44;68.63
73860;BME280;62197;51.632;13.700;2023-06-14T09:38:57;100463.13;;;18.26;66.82
73860;BME280;62197;51.632;13.700;2023-06-14T09:41:37;100459.72;;;18.29;66.59
73860;BME280;62197;51.632;13.700;2023-06-14T09:44:04;100472.88;;;18.62;65.28
73860;BME280;62197;51.632;13.700;2023-06-14T09:46:31;100473.16;;;18.61;65.23
73860;BME280;62197;51.632;13.700;2023-06-14T09:48:57;100466.56;;;18.52;65.65
73860;BME280;62197;51.632;13.700;2023-06-14T09:51:23;100473.25;;;18.51;65.51
73860;BME280;62197;51.632;13.700;2023-06-14T09:53:49;100471.72;;;18.35;67.19
73860;BME280;62197;51.632;13.700;2023-06-14T09:56:38;100467.19;;;18.44;66.68
73860;BME280;62197;51.632;13.700;2023-06-14T09:59:06;100460.56;;;18.30;66.12
73860;BME280;62197;51.632;13.700;2023-06-14T10:01:35;100460.97;;;18.52;65.34
73860;BME280;62197;51.632;13.700;2023-06-14T10:04:03;100467.47;;;18.71;65.21
73860;BME280;62197;51.632;13.700;2023-06-14T10:06:30;100460.44;;;18.45;65.80
73860;BME280;62197;51.632;13.700;2023-06-14T10:08:57;100463.88;;;18.37;65.95
73860;BME280;62197;51.632;13.700;2023-06-14T10:11:26;100462.13;;;18.41;66.91
73860;BME280;62197;51.632;13.700;2023-06-14T10:13:52;100464.31;;;18.54;66.36
73860;BME280;62197;51.632;13.700;2023-06-14T10:16:31;100457.09;;;19.00;65.65
73860;BME280;62197;51.632;13.700;2023-06-14T10:19:28;100453.88;;;18.88;65.91
73860;BME280;62197;51.632;13.700;2023-06-14T10:22:14;100454.84;;;19.02;65.88
73860;BME280;62197;51.632;13.700;2023-06-14T10:24:44;100456.38;;;19.13;64.64
73860;BME280;62197;51.632;13.700;2023-06-14T10:27:10;100455.63;;;19.26;64.29
73860;BME280;62197;51.632;13.700;2023-06-14T10:32:20;100452.13;;;20.19;61.98
73860;BME280;62197;51.632;13.700;2023-06-14T10:34:45;100444.63;;;20.46;60.67
73860;BME280;62197;51.632;13.700;2023-06-14T10:37:13;100446.03;;;20.12;60.48
73860;BME280;62197;51.632;13.700;2023-06-14T10:39:41;100437.50;;;19.66;63.58
73860;BME280;62197;51.632;13.700;2023-06-14T10:42:06;100440.97;;;18.92;65.93
73860;BME280;62197;51.632;13.700;2023-06-14T10:44:33;100436.63;;;18.81;65.93
73860;BME280;62197;51.632;13.700;2023-06-14T10:47:00;100444.00;;;18.38;68.43
73860;BME280;62197;51.632;13.700;2023-06-14T10:49:39;100443.81;;;18.30;68.76
73860;BME280;62197;51.632;13.700;2023-06-14T10:52:12;100440.00;;;18.16;68.09
73860;BME280;62197;51.632;13.700;2023-06-14T10:55:05;100432.66;;;17.91;69.34
73860;BME280;62197;51.632;13.700;2023-06-14T10:57:32;100429.44;;;18.13;68.35
73860;BME280;62197;51.632;13.700;2023-06-14T10:59:59;100443.31;;;18.23;69.35
73860;BME280;62197;51.632;13.700;2023-06-14T11:05:28;100430.50;;;18.79;67.25
73860;BME280;62197;51.632;13.700;2023-06-14T11:10:41;100429.50;;;19.78;62.19
73860;BME280;62197;51.632;13.700;2023-06-14T11:13:07;100428.47;;;20.25;61.82
73860;BME280;62197;51.632;13.700;2023-06-14T11:15:36;100416.78;;;20.36;61.85
73860;BME280;62197;51.632;13.700;2023-06-14T11:18:02;100416.63;;;20.60;59.90
73860;BME280;62197;51.632;13.700;2023-06-14T11:20:30;100423.41;;;20.08;61.48
73860;BME280;62197;51.632;13.700;2023-06-14T11:22:56;100418.81;;;19.99;60.11
73860;BME280;62197;51.632;13.700;2023-06-14T11:25:21;100413.47;;;20.16;61.15
73860;BME280;62197;51.632;13.700;2023-06-14T11:27:49;100426.66;;;20.34;60.02
73860;BME280;62197;51.632;13.700;2023-06-14T11:30:15;100419.34;;;20.33;59.40
73860;BME280;62197;51.632;13.700;2023-06-14T11:32:40;100423.47;;;20.54;58.84
73860;BME280;62197;51.632;13.700;2023-06-14T11:35:06;100419.00;;;20.53;58.46
73860;BME280;62197;51.632;13.700;2023-06-14T11:37:33;100420.34;;;21.01;56.57
73860;BME280;62197;51.632;13.700;2023-06-14T11:39:59;100409.72;;;21.25;56.75
73860;BME280;62197;51.632;13.700;2023-06-14T11:42:28;100406.19;;;22.05;53.82
73860;BME280;62197;51.632;13.700;2023-06-14T11:44:54;100413.31;;;22.77;54.20
73860;BME280;62197;51.632;13.700;2023-06-14T11:47:20;100412.19;;;22.56;51.47
73860;BME280;62197;51.632;13.700;2023-06-14T11:49:46;100412.66;;;21.70;56.55
73860;BME280;62197;51.632;13.700;2023-06-14T11:52:11;100403.78;;;20.86;56.35
73860;BME280;62197;51.632;13.700;2023-06-14T11:54:37;100399.88;;;19.91;59.15
73860;BME280;62197;51.632;13.700;2023-06-14T11:57:03;100402.78;;;19.48;61.87
73860;BME280;62197;51.632;13.700;2023-06-14T11:59:29;100405.06;;;19.23;62.54
73860;BME280;62197;51.632;13.700;2023-06-14T12:01:56;100409.00;;;19.22;62.87
73860;BME280;62197;51.632;13.700;2023-06-14T12:04:26;100396.59;;;19.28;63.46
73860;BME280;62197;51.632;13.700;2023-06-14T12:06:52;100402.09;;;19.14;64.08
73860;BME280;62197;51.632;13.700;2023-06-14T12:09:18;100403.63;;;19.25;65.13
73860;BME280;62197;51.632;13.700;2023-06-14T12:11:45;100408.09;;;19.68;62.38
73860;BME280;62197;51.632;13.700;2023-06-14T12:14:10;100407.63;;;19.61;62.93
73860;BME280;62197;51.632;13.700;2023-06-14T12:16:38;100401.69;;;19.63;61.91
73860;BME280;62197;51.632;13.700;2023-06-14T12:19:15;100395.88;;;19.59;62.61
73860;BME280;62197;51.632;13.700;2023-06-14T12:21:41;100397.41;;;19.28;62.58
73860;BME280;62197;51.632;13.700;2023-06-14T12:24:07;100382.78;;;19.36;62.77
73860;BME280;62197;51.632;13.700;2023-06-14T12:26:33;100391.72;;;19.75;62.87
73860;BME280;62197;51.632;13.700;2023-06-14T12:28:58;100388.47;;;20.38;59.87
73860;BME280;62197;51.632;13.700;2023-06-14T12:31:24;100392.59;;;20.40;59.97
73860;BME280;62197;51.632;13.700;2023-06-14T12:33:50;100388.13;;;21.62;55.69
73860;BME280;62197;51.632;13.700;2023-06-14T12:36:16;100400.56;;;23.92;48.91
73860;BME280;62197;51.632;13.700;2023-06-14T12:38:42;100394.69;;;25.03;47.14
73860;BME280;62197;51.632;13.700;2023-06-14T12:41:07;100385.53;;;25.65;45.68
73860;BME280;62197;51.632;13.700;2023-06-14T12:43:33;100395.53;;;27.26;40.00
73860;BME280;62197;51.632;13.700;2023-06-14T12:45:59;100391.84;;;26.12;41.20